CEB284 RPVM-RPLL
Flight info
| Callsign | CEB284 |
|---|---|
| Flight time | 0h 58m |
| Altitude | 28000 |
| Route | PARAO4P PARAO DCT ROX DCT LAIYA LAIYA5R |
| Aircraft | A20N/M-SDE2E3FGHIRWXY/LB1 |
Departure
| Time | 2026-04-30 13:44 |
|---|---|
| Airport | Mactan Cebu International Airport (RPVM) |
Arrival
| Time | 2026-04-30 14:42 |
|---|---|
| Airport | Ninoy Aquino International Airport (RPLL) |
| Time | Latitude | Longitude | Altitude | Speed | Heading |
|---|---|---|---|---|---|
| 2026-04-30 13:36 | 10.31511 | 123.97929 | 38 ft | 2 kts | 315° |
| 2026-04-30 13:36 | 10.31490 | 123.97951 | 35 ft | 2 kts | 314° |
| 2026-04-30 13:37 | 10.31479 | 123.97962 | 34 ft | 2 kts | 314° |
| 2026-04-30 13:37 | 10.31458 | 123.97984 | 34 ft | 2 kts | 285° |
| 2026-04-30 13:38 | 10.31460 | 123.97997 | 35 ft | 0 kts | 226° |
| 2026-04-30 13:39 | 10.31453 | 123.97990 | 36 ft | 5 kts | 226° |
| 2026-04-30 13:39 | 10.31314 | 123.97910 | 38 ft | 9 kts | 144° |
| 2026-04-30 13:40 | 10.31265 | 123.97957 | 38 ft | 11 kts | 142° |
| 2026-04-30 13:40 | 10.31192 | 123.97972 | 38 ft | 12 kts | 210° |
| 2026-04-30 13:40 | 10.31124 | 123.97904 | 38 ft | 15 kts | 225° |
| 2026-04-30 13:40 | 10.31039 | 123.97817 | 38 ft | 19 kts | 224° |
| 2026-04-30 13:41 | 10.30939 | 123.97723 | 38 ft | 21 kts | 223° |
| 2026-04-30 13:41 | 10.30831 | 123.97612 | 38 ft | 23 kts | 223° |
| 2026-04-30 13:41 | 10.30714 | 123.97497 | 39 ft | 24 kts | 226° |
| 2026-04-30 13:41 | 10.30588 | 123.97373 | 39 ft | 26 kts | 224° |
| 2026-04-30 13:42 | 10.30456 | 123.97239 | 38 ft | 28 kts | 226° |
| 2026-04-30 13:42 | 10.30347 | 123.97172 | 38 ft | 14 kts | 158° |
| 2026-04-30 13:42 | 10.30366 | 123.97290 | 39 ft | 8 kts | 45° |
| 2026-04-30 13:43 | 10.30407 | 123.97332 | 39 ft | 34 kts | 45° |
| 2026-04-30 13:43 | 10.30752 | 123.97673 | 37 ft | 101 kts | 45° |
| 2026-04-30 13:43 | 10.31376 | 123.98300 | 67 ft | 146 kts | 44° |
| 2026-04-30 13:43 | 10.32112 | 123.99094 | 422 ft | 160 kts | 44° |
| 2026-04-30 13:44 | 10.32912 | 123.99920 | 887 ft | 169 kts | 46° |
| 2026-04-30 13:44 | 10.33777 | 124.00754 | 1407 ft | 174 kts | 38° |
| 2026-04-30 13:44 | 10.34776 | 124.01489 | 1992 ft | 175 kts | 36° |
| 2026-04-30 13:44 | 10.35894 | 124.02000 | 2571 ft | 182 kts | 15° |
| 2026-04-30 13:45 | 10.38558 | 124.01467 | 3495 ft | 225 kts | 335° |
| 2026-04-30 13:45 | 10.39948 | 124.00613 | 3941 ft | 248 kts | 329° |
| 2026-04-30 13:45 | 10.41401 | 123.99590 | 4681 ft | 257 kts | 327° |
| 2026-04-30 13:46 | 10.42365 | 123.98877 | 5270 ft | 258 kts | 327° |
| 2026-04-30 13:46 | 10.43818 | 123.97792 | 6121 ft | 261 kts | 327° |
| 2026-04-30 13:46 | 10.45331 | 123.96668 | 6662 ft | 280 kts | 327° |
| 2026-04-30 13:46 | 10.47487 | 123.95082 | 7597 ft | 291 kts | 327° |
| 2026-04-30 13:47 | 10.48595 | 123.94267 | 8164 ft | 294 kts | 327° |
| 2026-04-30 13:47 | 10.50280 | 123.93031 | 8991 ft | 300 kts | 327° |
| 2026-04-30 13:47 | 10.51972 | 123.91789 | 9811 ft | 305 kts | 327° |
| 2026-04-30 13:47 | 10.53721 | 123.90506 | 10481 ft | 315 kts | 327° |
| 2026-04-30 13:48 | 10.55554 | 123.89164 | 10772 ft | 338 kts | 327° |
| 2026-04-30 13:48 | 10.57500 | 123.87725 | 11105 ft | 356 kts | 324° |
| 2026-04-30 13:48 | 10.59354 | 123.86004 | 11832 ft | 362 kts | 315° |
| 2026-04-30 13:48 | 10.60966 | 123.83987 | 12640 ft | 367 kts | 308° |
| 2026-04-30 13:49 | 10.62457 | 123.81889 | 13377 ft | 370 kts | 308° |
| 2026-04-30 13:49 | 10.63979 | 123.79771 | 14060 ft | 374 kts | 308° |
| 2026-04-30 13:49 | 10.65521 | 123.77633 | 14682 ft | 378 kts | 308° |
| 2026-04-30 13:49 | 10.67103 | 123.75440 | 15293 ft | 383 kts | 308° |
| 2026-04-30 13:50 | 10.68669 | 123.73268 | 15899 ft | 387 kts | 308° |
| 2026-04-30 13:50 | 10.71896 | 123.68788 | 17095 ft | 395 kts | 308° |
| 2026-04-30 13:50 | 10.73504 | 123.66554 | 17672 ft | 398 kts | 308° |
| 2026-04-30 13:51 | 10.75151 | 123.64265 | 18249 ft | 402 kts | 308° |
| 2026-04-30 13:51 | 10.76813 | 123.61955 | 18754 ft | 405 kts | 307° |
| 2026-04-30 13:51 | 10.78482 | 123.59634 | 19275 ft | 407 kts | 307° |
| 2026-04-30 13:51 | 10.80176 | 123.57279 | 19774 ft | 411 kts | 307° |
| 2026-04-30 13:52 | 10.81857 | 123.54939 | 20271 ft | 413 kts | 307° |
| 2026-04-30 13:52 | 10.83560 | 123.52571 | 20755 ft | 417 kts | 307° |
| 2026-04-30 13:52 | 10.85281 | 123.50174 | 21238 ft | 420 kts | 307° |
| 2026-04-30 13:52 | 10.86999 | 123.47784 | 21721 ft | 423 kts | 307° |
| 2026-04-30 13:53 | 10.88735 | 123.45367 | 22181 ft | 426 kts | 307° |
| 2026-04-30 13:53 | 10.90503 | 123.42904 | 22674 ft | 429 kts | 307° |
| 2026-04-30 13:53 | 10.92346 | 123.40525 | 23113 ft | 432 kts | 313° |
| 2026-04-30 13:53 | 10.94491 | 123.38351 | 23540 ft | 434 kts | 318° |
| 2026-04-30 13:54 | 10.96697 | 123.36250 | 23948 ft | 437 kts | 318° |
| 2026-04-30 13:54 | 10.98906 | 123.34131 | 24353 ft | 439 kts | 317° |
| 2026-04-30 13:54 | 11.01154 | 123.31970 | 24745 ft | 441 kts | 317° |
| 2026-04-30 13:54 | 11.03363 | 123.29845 | 25118 ft | 443 kts | 317° |
| 2026-04-30 13:55 | 11.05611 | 123.27682 | 25508 ft | 446 kts | 317° |
| 2026-04-30 13:55 | 11.07886 | 123.25493 | 25876 ft | 448 kts | 317° |
| 2026-04-30 13:55 | 11.10167 | 123.23298 | 26244 ft | 451 kts | 317° |
| 2026-04-30 13:55 | 11.12448 | 123.21103 | 26601 ft | 453 kts | 317° |
| 2026-04-30 13:56 | 11.14745 | 123.18891 | 26950 ft | 456 kts | 317° |
| 2026-04-30 13:56 | 11.17050 | 123.16673 | 27296 ft | 458 kts | 317° |
| 2026-04-30 13:56 | 11.19373 | 123.14435 | 27630 ft | 460 kts | 317° |
| 2026-04-30 13:56 | 11.21695 | 123.12199 | 27817 ft | 463 kts | 317° |
| 2026-04-30 13:57 | 11.24061 | 123.09920 | 27924 ft | 463 kts | 317° |
| 2026-04-30 13:57 | 11.26370 | 123.07694 | 28001 ft | 463 kts | 317° |
| 2026-04-30 13:57 | 11.31078 | 123.03161 | 28181 ft | 464 kts | 317° |
| 2026-04-30 13:58 | 11.38132 | 122.96378 | 28438 ft | 466 kts | 317° |
| 2026-04-30 13:59 | 11.42840 | 122.91857 | 28615 ft | 467 kts | 317° |
| 2026-04-30 13:59 | 11.47566 | 122.87321 | 28786 ft | 469 kts | 317° |
| 2026-04-30 13:59 | 11.49934 | 122.85019 | 28668 ft | 466 kts | 316° |
| 2026-04-30 14:00 | 11.52281 | 122.82723 | 28280 ft | 463 kts | 316° |
| 2026-04-30 14:00 | 11.56911 | 122.78216 | 28038 ft | 465 kts | 316° |
| 2026-04-30 14:00 | 11.59308 | 122.75964 | 27956 ft | 462 kts | 320° |
| 2026-04-30 14:01 | 11.61874 | 122.74018 | 27954 ft | 463 kts | 327° |
| 2026-04-30 14:01 | 11.64565 | 122.72197 | 27953 ft | 464 kts | 327° |
| 2026-04-30 14:01 | 11.67239 | 122.70374 | 27953 ft | 464 kts | 326° |
| 2026-04-30 14:01 | 11.69915 | 122.68544 | 27954 ft | 463 kts | 326° |
| 2026-04-30 14:02 | 11.72587 | 122.66716 | 27952 ft | 463 kts | 326° |
| 2026-04-30 14:02 | 11.75258 | 122.64889 | 27949 ft | 463 kts | 326° |
| 2026-04-30 14:02 | 11.77953 | 122.63046 | 27952 ft | 463 kts | 326° |
| 2026-04-30 14:02 | 11.80623 | 122.61220 | 27954 ft | 463 kts | 326° |
| 2026-04-30 14:03 | 11.83324 | 122.59373 | 27956 ft | 463 kts | 326° |
| 2026-04-30 14:03 | 11.86000 | 122.57542 | 27956 ft | 463 kts | 326° |
| 2026-04-30 14:03 | 11.88716 | 122.55684 | 27960 ft | 463 kts | 326° |
| 2026-04-30 14:03 | 11.91368 | 122.53868 | 27957 ft | 464 kts | 326° |
| 2026-04-30 14:04 | 11.94057 | 122.52028 | 27962 ft | 464 kts | 326° |
| 2026-04-30 14:04 | 11.96742 | 122.50189 | 27959 ft | 464 kts | 326° |
| 2026-04-30 14:04 | 11.99436 | 122.48343 | 27963 ft | 464 kts | 326° |
| 2026-04-30 14:04 | 12.02125 | 122.46501 | 27965 ft | 464 kts | 326° |
| 2026-04-30 14:05 | 12.04772 | 122.44688 | 27968 ft | 463 kts | 326° |
| 2026-04-30 14:05 | 12.07449 | 122.42853 | 27969 ft | 463 kts | 326° |
| 2026-04-30 14:05 | 12.10133 | 122.41013 | 27967 ft | 463 kts | 326° |
| 2026-04-30 14:05 | 12.12847 | 122.39151 | 27966 ft | 463 kts | 326° |
| 2026-04-30 14:06 | 12.15500 | 122.37332 | 27968 ft | 462 kts | 326° |
| 2026-04-30 14:06 | 12.20818 | 122.33683 | 27967 ft | 462 kts | 326° |
| 2026-04-30 14:07 | 12.26161 | 122.30014 | 27968 ft | 460 kts | 326° |
| 2026-04-30 14:07 | 12.28828 | 122.28183 | 27969 ft | 460 kts | 326° |
| 2026-04-30 14:07 | 12.31452 | 122.26381 | 27969 ft | 460 kts | 326° |
| 2026-04-30 14:08 | 12.36768 | 122.22727 | 27968 ft | 459 kts | 326° |
| 2026-04-30 14:08 | 12.39430 | 122.20897 | 27968 ft | 459 kts | 326° |
| 2026-04-30 14:08 | 12.44758 | 122.17233 | 27966 ft | 459 kts | 326° |
| 2026-04-30 14:09 | 12.47415 | 122.15405 | 27967 ft | 459 kts | 326° |
| 2026-04-30 14:09 | 12.50041 | 122.13598 | 27968 ft | 459 kts | 326° |
| 2026-04-30 14:09 | 12.55361 | 122.09935 | 27970 ft | 459 kts | 326° |
| 2026-04-30 14:10 | 12.58035 | 122.08094 | 27970 ft | 459 kts | 326° |
| 2026-04-30 14:10 | 12.60673 | 122.06277 | 27969 ft | 459 kts | 326° |
| 2026-04-30 14:10 | 12.63333 | 122.04444 | 27970 ft | 459 kts | 326° |
| 2026-04-30 14:10 | 12.65966 | 122.02629 | 27969 ft | 459 kts | 326° |
| 2026-04-30 14:11 | 12.68617 | 122.00802 | 27972 ft | 459 kts | 326° |
| 2026-04-30 14:11 | 12.71285 | 121.98962 | 27970 ft | 459 kts | 326° |
| 2026-04-30 14:11 | 12.73907 | 121.97154 | 27972 ft | 459 kts | 326° |
| 2026-04-30 14:11 | 12.76568 | 121.95318 | 27970 ft | 460 kts | 326° |
| 2026-04-30 14:12 | 12.79233 | 121.93479 | 27971 ft | 459 kts | 326° |
| 2026-04-30 14:12 | 12.81892 | 121.91643 | 27972 ft | 459 kts | 326° |
| 2026-04-30 14:12 | 12.84575 | 121.89791 | 27973 ft | 459 kts | 326° |
| 2026-04-30 14:12 | 12.86321 | 121.88585 | 27976 ft | 459 kts | 326° |
| 2026-04-30 14:13 | 12.89883 | 121.86125 | 27972 ft | 459 kts | 326° |
| 2026-04-30 14:13 | 12.92532 | 121.84294 | 27975 ft | 459 kts | 326° |
| 2026-04-30 14:13 | 12.95185 | 121.82460 | 27972 ft | 459 kts | 326° |
| 2026-04-30 14:13 | 12.97799 | 121.80654 | 27976 ft | 459 kts | 326° |
| 2026-04-30 14:14 | 13.00450 | 121.78820 | 27975 ft | 459 kts | 325° |
| 2026-04-30 14:14 | 13.03093 | 121.76992 | 27973 ft | 459 kts | 325° |
| 2026-04-30 14:14 | 13.05747 | 121.75156 | 27975 ft | 458 kts | 325° |
| 2026-04-30 14:14 | 13.08398 | 121.73321 | 27975 ft | 459 kts | 325° |
| 2026-04-30 14:15 | 13.11044 | 121.71489 | 27975 ft | 459 kts | 325° |
| 2026-04-30 14:15 | 13.13696 | 121.69653 | 27974 ft | 459 kts | 325° |
| 2026-04-30 14:15 | 13.15446 | 121.68441 | 27973 ft | 458 kts | 325° |
| 2026-04-30 14:15 | 13.18096 | 121.66606 | 27972 ft | 459 kts | 325° |
| 2026-04-30 14:16 | 13.20746 | 121.64769 | 27976 ft | 459 kts | 325° |
| 2026-04-30 14:16 | 13.23398 | 121.62931 | 27978 ft | 459 kts | 325° |
| 2026-04-30 14:16 | 13.26057 | 121.61087 | 27977 ft | 458 kts | 325° |
| 2026-04-30 14:16 | 13.28699 | 121.59256 | 27980 ft | 458 kts | 325° |
| 2026-04-30 14:17 | 13.31342 | 121.57422 | 27979 ft | 458 kts | 325° |
| 2026-04-30 14:17 | 13.33993 | 121.55582 | 27979 ft | 457 kts | 325° |
| 2026-04-30 14:17 | 13.36636 | 121.53748 | 27978 ft | 457 kts | 325° |
| 2026-04-30 14:17 | 13.39244 | 121.51937 | 27979 ft | 456 kts | 325° |
| 2026-04-30 14:18 | 13.41879 | 121.50108 | 27970 ft | 456 kts | 325° |
| 2026-04-30 14:18 | 13.44535 | 121.48263 | 27647 ft | 455 kts | 325° |
| 2026-04-30 14:18 | 13.49743 | 121.44644 | 26179 ft | 452 kts | 325° |
| 2026-04-30 14:19 | 13.55065 | 121.40941 | 24268 ft | 463 kts | 326° |
| 2026-04-30 14:19 | 13.57725 | 121.39089 | 23759 ft | 457 kts | 326° |
| 2026-04-30 14:19 | 13.60287 | 121.37232 | 23453 ft | 444 kts | 324° |
| 2026-04-30 14:20 | 13.62770 | 121.35366 | 22838 ft | 439 kts | 324° |
| 2026-04-30 14:20 | 13.65218 | 121.33515 | 22283 ft | 433 kts | 324° |
| 2026-04-30 14:20 | 13.70051 | 121.29884 | 21098 ft | 423 kts | 324° |
| 2026-04-30 14:21 | 13.72432 | 121.28105 | 20502 ft | 420 kts | 324° |
| 2026-04-30 14:21 | 13.74737 | 121.26385 | 20695 ft | 413 kts | 324° |
| 2026-04-30 14:21 | 13.79462 | 121.22863 | 20446 ft | 417 kts | 324° |
| 2026-04-30 14:22 | 13.81789 | 121.21126 | 19850 ft | 414 kts | 324° |
| 2026-04-30 14:22 | 13.86419 | 121.17670 | 18360 ft | 405 kts | 324° |
| 2026-04-30 14:22 | 13.88704 | 121.15963 | 17473 ft | 401 kts | 324° |
| 2026-04-30 14:23 | 13.93145 | 121.12645 | 15857 ft | 388 kts | 324° |
| 2026-04-30 14:23 | 13.97481 | 121.09404 | 14255 ft | 379 kts | 324° |
| 2026-04-30 14:24 | 14.01701 | 121.06248 | 13157 ft | 376 kts | 324° |
| 2026-04-30 14:24 | 14.03828 | 121.04658 | 12628 ft | 377 kts | 325° |
| 2026-04-30 14:25 | 14.07937 | 121.01582 | 12308 ft | 346 kts | 325° |
| 2026-04-30 14:25 | 14.11592 | 120.98844 | 11960 ft | 309 kts | 325° |
| 2026-04-30 14:26 | 14.14935 | 120.96340 | 11266 ft | 289 kts | 326° |
| 2026-04-30 14:26 | 14.16501 | 120.95167 | 11155 ft | 270 kts | 326° |
| 2026-04-30 14:26 | 14.19542 | 120.93243 | 10599 ft | 252 kts | 333° |
| 2026-04-30 14:27 | 14.21078 | 120.92343 | 10183 ft | 250 kts | 333° |
| 2026-04-30 14:27 | 14.22578 | 120.91461 | 9747 ft | 249 kts | 333° |
| 2026-04-30 14:27 | 14.24081 | 120.90573 | 9301 ft | 247 kts | 333° |
| 2026-04-30 14:28 | 14.26337 | 120.88175 | 8913 ft | 239 kts | 285° |
| 2026-04-30 14:28 | 14.26352 | 120.86469 | 8573 ft | 239 kts | 254° |
| 2026-04-30 14:28 | 14.25721 | 120.84909 | 8357 ft | 239 kts | 239° |
| 2026-04-30 14:28 | 14.24793 | 120.83462 | 8653 ft | 243 kts | 233° |
| 2026-04-30 14:29 | 14.23129 | 120.80368 | 9102 ft | 250 kts | 238° |
| 2026-04-30 14:29 | 14.21859 | 120.77710 | 8654 ft | 245 kts | 262° |
| 2026-04-30 14:30 | 14.24770 | 120.73580 | 7441 ft | 214 kts | 338° |
| 2026-04-30 14:31 | 14.27209 | 120.72368 | 7288 ft | 180 kts | 337° |
| 2026-04-30 14:31 | 14.29301 | 120.71217 | 6847 ft | 167 kts | 335° |
| 2026-04-30 14:31 | 14.30318 | 120.70632 | 6560 ft | 166 kts | 335° |
| 2026-04-30 14:32 | 14.32386 | 120.69837 | 5923 ft | 157 kts | 15° |
| 2026-04-30 14:32 | 14.33301 | 120.70385 | 5568 ft | 153 kts | 53° |
| 2026-04-30 14:32 | 14.33833 | 120.71334 | 5234 ft | 153 kts | 62° |
| 2026-04-30 14:33 | 14.34346 | 120.72284 | 4954 ft | 151 kts | 61° |
| 2026-04-30 14:33 | 14.35396 | 120.74166 | 4374 ft | 150 kts | 61° |
| 2026-04-30 14:33 | 14.35918 | 120.75099 | 4076 ft | 150 kts | 61° |
| 2026-04-30 14:34 | 14.36434 | 120.76020 | 3863 ft | 147 kts | 62° |
| 2026-04-30 14:34 | 14.36932 | 120.76910 | 3701 ft | 140 kts | 62° |
| 2026-04-30 14:34 | 14.37479 | 120.77828 | 3520 ft | 151 kts | 60° |
| 2026-04-30 14:34 | 14.38007 | 120.78738 | 3391 ft | 146 kts | 62° |
| 2026-04-30 14:35 | 14.38846 | 120.80252 | 3241 ft | 146 kts | 62° |
| 2026-04-30 14:35 | 14.39516 | 120.81461 | 3152 ft | 142 kts | 62° |
| 2026-04-30 14:35 | 14.40006 | 120.82347 | 3090 ft | 141 kts | 62° |
| 2026-04-30 14:36 | 14.40497 | 120.83233 | 3033 ft | 142 kts | 63° |
| 2026-04-30 14:36 | 14.40977 | 120.84101 | 2976 ft | 139 kts | 63° |
| 2026-04-30 14:36 | 14.41454 | 120.84963 | 2915 ft | 138 kts | 62° |
| 2026-04-30 14:36 | 14.41941 | 120.85842 | 2846 ft | 142 kts | 62° |
| 2026-04-30 14:37 | 14.42425 | 120.86716 | 2745 ft | 141 kts | 62° |
| 2026-04-30 14:37 | 14.42912 | 120.87596 | 2606 ft | 139 kts | 63° |
| 2026-04-30 14:37 | 14.43390 | 120.88460 | 2448 ft | 140 kts | 62° |
| 2026-04-30 14:37 | 14.43876 | 120.89338 | 2287 ft | 140 kts | 62° |
| 2026-04-30 14:38 | 14.44359 | 120.90211 | 2113 ft | 140 kts | 62° |
| 2026-04-30 14:38 | 14.44848 | 120.91094 | 1934 ft | 142 kts | 62° |
| 2026-04-30 14:38 | 14.45336 | 120.91976 | 1763 ft | 141 kts | 62° |
| 2026-04-30 14:38 | 14.45821 | 120.92853 | 1572 ft | 140 kts | 62° |
| 2026-04-30 14:39 | 14.46300 | 120.93720 | 1398 ft | 136 kts | 62° |
| 2026-04-30 14:39 | 14.46750 | 120.94531 | 1226 ft | 125 kts | 63° |
| 2026-04-30 14:39 | 14.47194 | 120.95336 | 1077 ft | 132 kts | 62° |
| 2026-04-30 14:40 | 14.48097 | 120.96974 | 749 ft | 131 kts | 63° |
| 2026-04-30 14:40 | 14.48538 | 120.97799 | 590 ft | 131 kts | 62° |
| 2026-04-30 14:40 | 14.48999 | 120.98614 | 362 ft | 130 kts | 61° |
| 2026-04-30 14:40 | 14.49458 | 120.99420 | 248 ft | 128 kts | 62° |
| 2026-04-30 14:41 | 14.49908 | 121.00224 | 106 ft | 131 kts | 63° |
| 2026-04-30 14:41 | 14.50343 | 121.01007 | 58 ft | 109 kts | 61° |
| 2026-04-30 14:41 | 14.50618 | 121.01511 | 53 ft | 61 kts | 60° |
| 2026-04-30 14:41 | 14.50883 | 121.01809 | 33 ft | 55 kts | 33° |
| 2026-04-30 14:42 | 14.51016 | 121.01941 | 34 ft | 11 kts | 55° |
| 2026-04-30 14:42 | 14.51066 | 121.01963 | 35 ft | 8 kts | 331° |
| 2026-04-30 14:42 | 14.51133 | 121.01923 | 33 ft | 14 kts | 329° |
| 2026-04-30 14:42 | 14.51211 | 121.01845 | 31 ft | 18 kts | 315° |
| 2026-04-30 14:43 | 14.51273 | 121.01780 | 31 ft | 20 kts | 314° |
| 2026-04-30 14:43 | 14.51417 | 121.01633 | 33 ft | 23 kts | 316° |
| 2026-04-30 14:43 | 14.51529 | 121.01516 | 34 ft | 19 kts | 315° |
| 2026-04-30 14:43 | 14.51563 | 121.01509 | 35 ft | 6 kts | 51° |
| 2026-04-30 14:44 | 14.51610 | 121.01566 | 35 ft | 10 kts | 45° |
| 2026-04-30 14:44 | 14.51624 | 121.01580 | 34 ft | 0 kts | 44° |